createdAt,value
2022-10-28T00:00:48.848Z,15.35
2022-10-28T00:01:48.942Z,15.31
2022-10-28T00:02:48.855Z,15.36
2022-10-28T00:03:48.811Z,15.33
2022-10-28T00:04:48.780Z,15.29
2022-10-28T00:05:48.792Z,15.28
2022-10-28T00:06:48.772Z,15.33
2022-10-28T00:07:48.760Z,15.39
2022-10-28T00:08:48.753Z,15.44
2022-10-28T00:09:48.737Z,15.44
2022-10-28T00:10:48.730Z,15.37
2022-10-28T00:11:48.708Z,15.37
2022-10-28T00:12:48.703Z,15.39
2022-10-28T00:13:48.696Z,15.44
2022-10-28T00:14:48.692Z,15.42
2022-10-28T00:15:48.668Z,15.42
2022-10-28T00:16:48.657Z,15.42
2022-10-28T00:17:48.652Z,15.46
2022-10-28T00:18:48.659Z,15.43
2022-10-28T00:19:48.619Z,15.49
2022-10-28T00:20:48.609Z,15.51
2022-10-28T00:21:48.609Z,15.54
2022-10-28T00:22:48.583Z,15.40
2022-10-28T00:23:48.580Z,15.54
2022-10-28T00:24:48.598Z,15.51
2022-10-28T00:25:48.567Z,15.55
2022-10-28T00:26:48.547Z,15.49
2022-10-28T00:27:48.537Z,15.58
2022-10-28T00:28:48.523Z,15.51
2022-10-28T00:29:48.531Z,15.46
2022-10-28T00:30:48.531Z,15.46
2022-10-28T00:31:48.492Z,15.51
2022-10-28T00:32:48.478Z,15.55
2022-10-28T00:33:48.469Z,15.51
2022-10-28T00:34:48.481Z,15.58
2022-10-28T00:35:48.456Z,15.55
2022-10-28T00:36:48.440Z,15.54
2022-10-28T00:37:48.429Z,15.54
2022-10-28T00:38:48.423Z,15.57
2022-10-28T00:39:48.408Z,15.58
2022-10-28T00:40:48.415Z,15.57
2022-10-28T00:41:48.393Z,15.58
2022-10-28T00:42:48.389Z,15.57
2022-10-28T00:43:48.363Z,15.57
2022-10-28T00:44:48.345Z,15.49
2022-10-28T00:45:48.344Z,15.57
2022-10-28T00:46:48.364Z,15.51
2022-10-28T00:47:48.318Z,15.58
2022-10-28T00:48:48.307Z,15.55
2022-10-28T00:49:48.292Z,15.54
2022-10-28T00:50:48.289Z,15.59
2022-10-28T00:51:48.271Z,15.54
2022-10-28T00:52:48.288Z,15.57
2022-10-28T00:53:48.249Z,15.62
2022-10-28T00:54:48.236Z,15.54
2022-10-28T00:55:48.239Z,15.54
2022-10-28T00:56:48.229Z,15.58
2022-10-28T00:57:48.209Z,15.57
2022-10-28T00:58:48.211Z,15.55
2022-10-28T00:59:48.199Z,15.55
2022-10-28T01:00:48.187Z,15.55
2022-10-28T01:01:48.316Z,15.46
2022-10-28T01:02:48.273Z,15.54
2022-10-28T01:03:48.144Z,15.57
2022-10-28T01:04:48.142Z,15.55
2022-10-28T01:05:48.125Z,15.57
2022-10-28T01:06:48.128Z,15.54
2022-10-28T01:07:48.132Z,15.58
2022-10-28T01:08:48.097Z,15.54
2022-10-28T01:09:48.086Z,15.57
2022-10-28T01:10:48.071Z,15.55
2022-10-28T01:11:48.063Z,15.55
2022-10-28T01:12:48.059Z,15.52
2022-10-28T01:13:48.058Z,15.57
2022-10-28T01:14:48.022Z,15.47
2022-10-28T01:15:48.021Z,15.55
2022-10-28T01:16:47.998Z,15.55
2022-10-28T01:17:48.001Z,15.51
2022-10-28T01:18:48.010Z,15.55
2022-10-28T01:19:47.973Z,15.55
2022-10-28T01:20:48.446Z,15.55
2022-10-28T01:21:47.969Z,15.55
2022-10-28T01:22:47.940Z,15.52
2022-10-28T01:23:47.949Z,15.51
2022-10-28T01:24:47.919Z,15.51
2022-10-28T01:25:47.912Z,15.52
2022-10-28T01:26:47.912Z,15.51
2022-10-28T01:27:47.891Z,15.49
2022-10-28T01:28:47.893Z,15.51
2022-10-28T01:29:47.892Z,15.58
2022-10-28T01:30:47.856Z,15.44
2022-10-28T01:31:47.844Z,15.55
2022-10-28T01:32:47.831Z,15.55
2022-10-28T01:33:47.821Z,15.47
2022-10-28T01:34:47.830Z,15.46
2022-10-28T01:35:47.807Z,15.43
2022-10-28T01:36:47.799Z,15.40
2022-10-28T01:37:47.776Z,15.46
2022-10-28T01:38:47.773Z,15.57
2022-10-28T01:39:47.767Z,15.42
2022-10-28T01:40:47.735Z,15.37
2022-10-28T01:41:47.750Z,15.51
2022-10-28T01:42:47.744Z,15.54
2022-10-28T01:43:47.717Z,15.54
2022-10-28T01:44:47.718Z,15.55
2022-10-28T01:45:47.706Z,15.49
2022-10-28T01:46:47.676Z,15.54
2022-10-28T01:47:47.690Z,15.54
2022-10-28T01:48:47.651Z,15.51
2022-10-28T01:49:47.649Z,15.44
2022-10-28T01:50:47.635Z,15.40
2022-10-28T01:51:47.623Z,15.51
2022-10-28T01:52:47.623Z,15.35
2022-10-28T01:53:47.602Z,15.42
2022-10-28T01:54:47.588Z,15.44
2022-10-28T01:55:47.585Z,15.44
2022-10-28T01:56:47.568Z,15.44
2022-10-28T01:57:47.579Z,15.40
2022-10-28T01:58:47.561Z,15.29
2022-10-28T01:59:47.545Z,15.35
2022-10-28T02:00:47.625Z,15.35
2022-10-28T02:01:47.757Z,15.37
2022-10-28T02:02:47.512Z,15.29
2022-10-28T02:03:47.535Z,15.28
2022-10-28T02:04:47.490Z,15.33
2022-10-28T02:05:47.479Z,15.31
2022-10-28T02:06:47.474Z,15.24
2022-10-28T02:07:47.457Z,15.27
2022-10-28T02:08:47.453Z,15.24
2022-10-28T02:09:47.461Z,15.25
2022-10-28T02:10:47.423Z,15.24
2022-10-28T02:11:47.416Z,15.25
2022-10-28T02:12:47.402Z,15.28
2022-10-28T02:13:47.395Z,15.28
2022-10-28T02:14:47.388Z,15.24
2022-10-28T02:15:47.407Z,15.24
2022-10-28T02:16:47.366Z,15.25
2022-10-28T02:17:47.352Z,15.33
2022-10-28T02:18:47.337Z,15.22
2022-10-28T02:19:47.331Z,15.27
2022-10-28T02:20:47.312Z,15.28
2022-10-28T02:21:47.316Z,15.28
2022-10-28T02:22:47.288Z,15.27
2022-10-28T02:23:47.280Z,15.22
2022-10-28T02:24:47.275Z,15.25
2022-10-28T02:25:47.263Z,15.25
2022-10-28T02:26:47.269Z,15.24
2022-10-28T02:27:47.233Z,15.22
2022-10-28T02:28:47.218Z,15.27
2022-10-28T02:29:47.214Z,15.29
2022-10-28T02:30:47.205Z,15.28
2022-10-28T02:31:47.206Z,15.31
2022-10-28T02:32:47.211Z,15.27
2022-10-28T02:33:47.170Z,15.29
2022-10-28T02:34:47.164Z,15.28
2022-10-28T02:35:47.146Z,15.25
2022-10-28T02:36:47.145Z,15.29
2022-10-28T02:37:47.154Z,15.31
2022-10-28T02:38:47.119Z,15.25
2022-10-28T02:39:47.110Z,15.31
2022-10-28T02:40:47.137Z,15.25
2022-10-28T02:41:47.100Z,15.27
2022-10-28T02:42:47.080Z,15.27
2022-10-28T02:43:47.070Z,15.33
2022-10-28T02:44:47.051Z,15.27
2022-10-28T02:45:47.035Z,15.22
2022-10-28T02:46:47.059Z,15.25
2022-10-28T02:47:47.022Z,15.27
2022-10-28T02:48:47.026Z,15.31
2022-10-28T02:49:47.004Z,15.14
2022-10-28T02:50:46.986Z,15.11
2022-10-28T02:51:46.977Z,15.14
2022-10-28T02:52:46.977Z,15.24
2022-10-28T02:53:46.962Z,15.21
2022-10-28T02:54:46.973Z,15.15
2022-10-28T02:55:46.935Z,15.24
2022-10-28T02:56:46.915Z,15.19
2022-10-28T02:57:46.915Z,15.10
2022-10-28T02:58:46.898Z,15.24
2022-10-28T02:59:46.891Z,15.18
2022-10-28T03:00:46.963Z,15.24
2022-10-28T03:01:47.013Z,15.19
2022-10-28T03:02:46.872Z,15.25
2022-10-28T03:03:46.851Z,15.24
2022-10-28T03:04:46.852Z,15.25
2022-10-28T03:05:46.830Z,15.21
2022-10-28T03:06:46.819Z,15.21
2022-10-28T03:07:46.798Z,15.24
2022-10-28T03:08:46.807Z,15.15
2022-10-28T03:09:46.775Z,15.19
2022-10-28T03:10:46.781Z,15.17
2022-10-28T03:11:46.763Z,15.19
2022-10-28T03:12:46.763Z,15.19
2022-10-28T03:13:46.753Z,15.19
2022-10-28T03:14:46.731Z,15.10
2022-10-28T03:15:46.706Z,15.09
2022-10-28T03:16:46.704Z,15.19
2022-10-28T03:17:46.696Z,15.09
2022-10-28T03:18:46.681Z,15.09
2022-10-28T03:19:46.691Z,15.25
2022-10-28T03:20:46.669Z,15.14
2022-10-28T03:21:46.647Z,15.17
2022-10-28T03:22:46.636Z,15.22
2022-10-28T03:23:46.642Z,15.27
2022-10-28T03:24:46.637Z,15.21
2022-10-28T03:25:46.603Z,15.18
2022-10-28T03:26:46.590Z,15.09
2022-10-28T03:27:46.590Z,15.10
2022-10-28T03:28:46.590Z,15.07
2022-10-28T03:29:46.579Z,15.04
2022-10-28T03:30:46.558Z,14.99
2022-10-28T03:31:46.541Z,15.00
2022-10-28T03:32:46.526Z,15.04
2022-10-28T03:33:46.522Z,15.06
2022-10-28T03:34:46.527Z,15.03
2022-10-28T03:35:46.492Z,15.04
2022-10-28T03:36:46.503Z,15.00
2022-10-28T03:37:46.471Z,14.99
2022-10-28T03:38:46.475Z,15.04
2022-10-28T03:39:46.444Z,14.96
2022-10-28T03:40:46.443Z,15.02
2022-10-28T03:41:46.443Z,14.96
2022-10-28T03:42:46.422Z,15.04
2022-10-28T03:43:46.419Z,15.04
2022-10-28T03:44:46.406Z,15.09
2022-10-28T03:45:46.382Z,15.03
2022-10-28T03:46:46.390Z,15.04
2022-10-28T03:47:46.373Z,15.07
2022-10-28T03:48:46.360Z,15.07
2022-10-28T03:49:46.350Z,15.07
2022-10-28T03:50:46.347Z,15.06
2022-10-28T03:51:46.318Z,15.07
2022-10-28T03:52:46.334Z,15.03
2022-10-28T03:53:46.311Z,15.04
2022-10-28T03:54:46.308Z,15.09
2022-10-28T03:55:46.276Z,15.10
2022-10-28T03:56:46.291Z,15.06
2022-10-28T03:57:46.264Z,15.02
2022-10-28T03:58:46.291Z,15.06
2022-10-28T03:59:46.234Z,15.02
2022-10-28T04:00:46.248Z,15.00
2022-10-28T04:01:46.339Z,15.04
2022-10-28T04:02:46.199Z,15.04
2022-10-28T04:03:46.220Z,15.09
2022-10-28T04:04:46.226Z,14.99
2022-10-28T04:05:46.192Z,15.10
2022-10-28T04:06:46.161Z,15.06
2022-10-28T04:07:46.159Z,15.10
2022-10-28T04:08:46.172Z,15.03
2022-10-28T04:09:46.131Z,14.96
2022-10-28T04:10:47.469Z,15.02
2022-10-28T04:11:46.118Z,15.07
2022-10-28T04:12:46.092Z,14.94
2022-10-28T04:13:46.125Z,15.06
2022-10-28T04:14:46.076Z,15.02
2022-10-28T04:15:46.068Z,14.94
2022-10-28T04:16:46.091Z,15.04
2022-10-28T04:17:46.045Z,14.94
2022-10-28T04:18:46.042Z,15.02
2022-10-28T04:19:46.040Z,15.06
2022-10-28T04:20:46.007Z,14.96
2022-10-28T04:21:46.015Z,14.97
2022-10-28T04:22:46.025Z,15.06
2022-10-28T04:23:45.977Z,14.99
2022-10-28T04:24:45.987Z,15.00
2022-10-28T04:25:46.029Z,14.96
2022-10-28T04:26:45.948Z,15.04
2022-10-28T04:27:45.951Z,15.10
2022-10-28T04:28:45.924Z,15.03
2022-10-28T04:29:45.901Z,15.00
2022-10-28T04:30:45.902Z,14.99
2022-10-28T04:31:48.657Z,15.10
2022-10-28T04:32:47.007Z,15.00
2022-10-28T04:33:45.868Z,15.00
2022-10-28T04:34:45.881Z,15.07
2022-10-28T04:35:45.865Z,15.00
2022-10-28T04:36:45.836Z,14.94
2022-10-28T04:37:45.824Z,15.00
2022-10-28T04:38:45.822Z,15.04
2022-10-28T04:39:45.815Z,14.99
2022-10-28T04:40:45.801Z,14.97
2022-10-28T04:41:45.799Z,15.07
2022-10-28T04:42:45.768Z,15.02
2022-10-28T04:43:45.769Z,15.07
2022-10-28T04:44:45.766Z,15.06
2022-10-28T04:45:45.729Z,15.10
2022-10-28T04:46:45.726Z,15.06
2022-10-28T04:47:45.753Z,15.02
2022-10-28T04:48:45.703Z,15.10
2022-10-28T04:49:45.714Z,14.97
2022-10-28T04:50:45.687Z,15.02
2022-10-28T04:52:45.655Z,15.03
2022-10-28T04:53:45.674Z,14.96
2022-10-28T04:54:45.650Z,14.97
2022-10-28T04:55:45.650Z,14.92
2022-10-28T04:56:45.647Z,14.96
2022-10-28T04:57:45.647Z,14.94
2022-10-28T04:58:45.593Z,14.88
2022-10-28T04:59:45.612Z,14.94
2022-10-28T05:00:45.702Z,14.89
2022-10-28T05:01:45.658Z,14.82
2022-10-28T05:02:46.278Z,14.88
2022-10-28T05:03:45.536Z,14.88
2022-10-28T05:04:45.538Z,14.88
2022-10-28T05:05:45.527Z,14.86
2022-10-28T05:06:45.515Z,14.79
2022-10-28T05:07:45.515Z,14.81
2022-10-28T05:08:45.490Z,14.78
2022-10-28T05:09:45.475Z,14.79
2022-10-28T05:10:45.468Z,14.77
2022-10-28T05:11:45.472Z,14.79
2022-10-28T05:12:45.452Z,14.79
2022-10-28T05:13:45.449Z,14.82
2022-10-28T05:14:46.536Z,14.86
2022-10-28T05:15:45.404Z,14.79
2022-10-28T05:16:45.401Z,14.89
2022-10-28T05:17:45.402Z,14.84
2022-10-28T05:19:45.391Z,14.79
2022-10-28T05:20:45.362Z,14.86
2022-10-28T05:21:45.346Z,14.85
2022-10-28T05:22:45.342Z,14.77
2022-10-28T05:23:45.331Z,14.70
2022-10-28T05:24:45.320Z,14.66
2022-10-28T05:25:45.306Z,14.66
2022-10-28T05:26:45.302Z,14.58
2022-10-28T05:27:45.288Z,14.65
2022-10-28T05:28:45.285Z,14.65
2022-10-28T05:29:45.277Z,14.55
2022-10-28T05:30:45.255Z,14.60
2022-10-28T05:31:45.244Z,14.63
2022-10-28T05:32:45.227Z,14.59
2022-10-28T05:33:45.224Z,14.55
2022-10-28T05:34:45.225Z,14.65
2022-10-28T05:35:45.194Z,14.58
2022-10-28T05:36:45.178Z,14.55
2022-10-28T05:37:45.180Z,14.60
2022-10-28T05:38:45.168Z,14.60
2022-10-28T05:39:45.152Z,14.62
2022-10-28T05:40:45.157Z,14.59
2022-10-28T05:41:45.119Z,14.63
2022-10-28T05:42:45.179Z,14.58
2022-10-28T05:43:45.102Z,14.72
2022-10-28T05:44:45.147Z,14.59
2022-10-28T05:45:45.109Z,14.58
2022-10-28T05:46:45.074Z,14.68
2022-10-28T05:47:45.067Z,14.54
2022-10-28T05:48:45.055Z,14.66
2022-10-28T05:49:45.037Z,14.63
2022-10-28T05:50:45.019Z,14.68
2022-10-28T05:51:45.039Z,14.62
2022-10-28T05:52:45.014Z,14.66
2022-10-28T05:53:44.991Z,14.66
2022-10-28T05:54:44.994Z,14.63
2022-10-28T05:55:47.645Z,14.68
2022-10-28T05:56:44.967Z,14.70
2022-10-28T05:57:44.976Z,14.65
2022-10-28T05:58:44.974Z,14.72
2022-10-28T05:59:44.950Z,14.69
2022-10-28T06:00:45.046Z,14.69
2022-10-28T06:01:45.003Z,14.70
2022-10-28T06:02:44.922Z,14.78
2022-10-28T06:03:44.909Z,14.81
2022-10-28T06:04:44.867Z,14.91
2022-10-28T06:05:44.861Z,14.89
2022-10-28T06:06:44.869Z,14.88
2022-10-28T06:07:44.852Z,14.77
2022-10-28T06:08:44.864Z,14.86
2022-10-28T06:09:44.825Z,14.84
2022-10-28T06:10:44.814Z,14.84
2022-10-28T06:11:43.261Z,14.84
2022-10-28T06:12:43.267Z,14.91
2022-10-28T06:13:43.256Z,14.85
2022-10-28T06:14:43.233Z,14.82
2022-10-28T06:15:43.226Z,14.84
2022-10-28T06:16:43.223Z,14.84
2022-10-28T06:17:43.208Z,14.79
2022-10-28T06:18:43.214Z,14.84
2022-10-28T06:19:43.186Z,14.79
2022-10-28T06:20:43.175Z,14.73
2022-10-28T06:21:43.166Z,14.73
2022-10-28T06:22:43.157Z,14.70
2022-10-28T06:23:43.143Z,14.82
2022-10-28T06:24:43.149Z,14.77
2022-10-28T06:25:43.118Z,14.78
2022-10-28T06:26:43.113Z,14.79
2022-10-28T06:27:43.110Z,14.79
2022-10-28T06:28:43.087Z,14.82
2022-10-28T06:29:43.082Z,14.84
2022-10-28T06:30:43.085Z,14.84
2022-10-28T06:31:43.060Z,14.77
2022-10-28T06:32:43.078Z,14.86
2022-10-28T06:33:43.052Z,14.94
2022-10-28T06:34:43.036Z,14.92
2022-10-28T06:35:43.045Z,14.94
2022-10-28T06:36:43.000Z,14.97
2022-10-28T06:37:42.994Z,14.92
2022-10-28T06:38:43.000Z,14.96
2022-10-28T06:39:43.027Z,14.92
2022-10-28T06:40:42.966Z,14.94
2022-10-28T06:41:42.956Z,14.92
2022-10-28T06:42:42.951Z,14.88
2022-10-28T06:43:42.935Z,14.91
2022-10-28T06:44:42.936Z,14.89
2022-10-28T06:45:42.942Z,14.92
2022-10-28T06:46:44.438Z,14.96
2022-10-28T06:47:44.422Z,14.94
2022-10-28T06:48:44.420Z,14.94
2022-10-28T06:49:44.400Z,14.89
2022-10-28T06:50:44.398Z,14.96
2022-10-28T06:51:44.404Z,14.94
2022-10-28T06:53:44.348Z,14.99
2022-10-28T06:54:44.332Z,15.02
2022-10-28T06:55:44.330Z,14.99
2022-10-28T06:56:44.329Z,14.97
2022-10-28T06:57:44.352Z,14.97
2022-10-28T06:58:44.303Z,15.00
2022-10-28T06:59:44.283Z,15.06
2022-10-28T07:00:44.282Z,15.04
2022-10-28T07:01:44.435Z,15.07
2022-10-28T07:02:45.271Z,15.09
2022-10-28T07:03:44.290Z,15.09
2022-10-28T07:04:44.245Z,15.15
2022-10-28T07:05:44.229Z,15.15
2022-10-28T07:06:46.344Z,15.21
2022-10-28T07:07:44.213Z,15.22
2022-10-28T07:08:44.232Z,15.19
2022-10-28T07:09:44.203Z,15.19
2022-10-28T07:10:44.174Z,15.24
2022-10-28T07:11:44.184Z,15.27
2022-10-28T07:12:44.162Z,15.31
2022-10-28T07:13:45.484Z,15.28
2022-10-28T07:14:44.136Z,15.36
2022-10-28T07:15:44.133Z,15.37
2022-10-28T07:16:44.146Z,15.35
2022-10-28T07:17:44.142Z,15.36
2022-10-28T07:18:44.096Z,15.46
2022-10-28T07:19:44.114Z,15.47
2022-10-28T07:20:44.100Z,15.44
2022-10-28T07:21:44.067Z,15.43
2022-10-28T07:22:44.073Z,15.58
2022-10-28T07:23:44.051Z,15.58
2022-10-28T07:24:44.086Z,15.49
2022-10-28T07:25:44.063Z,15.58
2022-10-28T07:26:44.012Z,15.55
2022-10-28T07:27:44.009Z,15.55
2022-10-28T07:28:43.998Z,15.68
2022-10-28T07:29:44.011Z,15.62
2022-10-28T07:30:43.973Z,15.64
2022-10-28T07:31:43.970Z,15.73
2022-10-28T07:32:43.973Z,15.76
2022-10-28T07:33:43.945Z,15.73
2022-10-28T07:34:43.935Z,15.80
2022-10-28T07:35:43.955Z,15.76
2022-10-28T07:36:43.935Z,15.84
2022-10-28T07:37:43.917Z,15.88
2022-10-28T07:38:43.900Z,15.86
2022-10-28T07:39:43.907Z,15.91
2022-10-28T07:40:43.906Z,16.12
2022-10-28T07:41:43.888Z,16.17
2022-10-28T07:42:43.852Z,16.23
2022-10-28T07:43:43.830Z,16.23
2022-10-28T07:44:43.823Z,16.35
2022-10-28T07:45:43.828Z,16.43
2022-10-28T07:46:43.820Z,16.46
2022-10-28T07:47:43.797Z,16.53
2022-10-28T07:48:43.783Z,16.56
2022-10-28T07:49:43.767Z,16.60
2022-10-28T07:50:43.760Z,16.60
2022-10-28T07:51:43.744Z,16.66
2022-10-28T07:52:43.764Z,16.72
2022-10-28T07:53:43.721Z,16.74
2022-10-28T07:54:43.720Z,16.87
2022-10-28T07:55:43.701Z,16.97
2022-10-28T07:56:43.714Z,16.96
2022-10-28T07:57:43.679Z,17.01
2022-10-28T07:58:43.661Z,16.96
2022-10-28T07:59:43.661Z,17.02
2022-10-28T08:00:43.694Z,17.02
2022-10-28T08:01:43.714Z,17.05
2022-10-28T08:02:43.637Z,16.99
2022-10-28T08:03:43.602Z,17.06
2022-10-28T08:04:43.660Z,17.12
2022-10-28T08:05:43.588Z,17.24
2022-10-28T08:06:43.592Z,17.27
2022-10-28T08:07:43.629Z,17.39
2022-10-28T08:08:43.551Z,17.46
2022-10-28T08:09:43.524Z,17.64
2022-10-28T08:10:43.524Z,17.70
2022-10-28T08:11:43.515Z,17.86
2022-10-28T08:12:43.489Z,17.95
2022-10-28T08:13:43.481Z,18.01
2022-10-28T08:14:43.482Z,18.05
2022-10-28T08:15:43.463Z,17.97
2022-10-28T08:16:43.437Z,18.11
2022-10-28T08:17:43.430Z,18.22
2022-10-28T08:18:43.411Z,18.25
2022-10-28T08:19:44.150Z,18.26
2022-10-28T08:20:43.408Z,18.25
2022-10-28T08:21:43.383Z,18.55
2022-10-28T08:22:43.364Z,18.59
2022-10-28T08:23:43.349Z,18.56
2022-10-28T08:24:43.351Z,18.50
2022-10-28T08:25:43.374Z,18.52
2022-10-28T08:26:43.310Z,18.63
2022-10-28T08:27:43.313Z,18.71
2022-10-28T08:28:43.297Z,18.77
2022-10-28T08:29:43.299Z,18.78
2022-10-28T08:30:57.229Z,18.93
2022-10-28T08:31:44.264Z,19.08
2022-10-28T08:32:43.252Z,19.26
2022-10-28T08:33:43.281Z,19.30
2022-10-28T08:34:43.808Z,19.56
2022-10-28T08:35:43.253Z,19.88
2022-10-28T08:36:43.280Z,20.55
2022-10-28T08:37:43.208Z,21.73
2022-10-28T08:38:45.701Z,21.93
2022-10-28T08:39:43.179Z,21.70
2022-10-28T08:40:43.177Z,21.40
2022-10-28T08:41:43.167Z,21.00
2022-10-28T08:42:43.178Z,20.66
2022-10-28T08:43:56.664Z,20.36
2022-10-28T08:44:44.154Z,20.04
2022-10-28T08:45:43.112Z,19.85
2022-10-28T08:46:43.107Z,19.63
2022-10-28T08:47:43.159Z,19.54
2022-10-28T08:48:43.101Z,19.47
2022-10-28T08:49:45.709Z,19.69
2022-10-28T08:50:44.054Z,19.92
2022-10-28T08:51:43.049Z,19.92
2022-10-28T08:52:43.035Z,19.99
2022-10-28T08:53:43.247Z,19.94
2022-10-28T08:54:43.019Z,19.96
2022-10-28T08:55:43.003Z,19.96
2022-10-28T08:56:43.003Z,20.11
2022-10-28T08:57:42.980Z,20.34
2022-10-28T08:58:42.988Z,20.44
2022-10-28T08:59:42.963Z,20.60
2022-10-28T09:00:42.957Z,20.80
2022-10-28T09:01:43.109Z,21.12
2022-10-28T09:02:42.939Z,21.20
2022-10-28T09:03:42.931Z,21.32
2022-10-28T09:04:42.905Z,21.39
2022-10-28T09:05:42.899Z,21.54
2022-10-28T09:06:42.890Z,21.43
2022-10-28T09:07:42.872Z,21.39
2022-10-28T09:08:42.876Z,21.18
2022-10-28T09:09:42.871Z,21.05
2022-10-28T09:10:42.832Z,20.90
2022-10-28T09:11:42.830Z,20.81
2022-10-28T09:12:42.833Z,20.62
2022-10-28T09:13:42.809Z,20.52
2022-10-28T09:14:43.675Z,20.51
2022-10-28T09:15:42.797Z,20.44
2022-10-28T09:16:42.780Z,20.41
2022-10-28T09:17:42.767Z,20.39
2022-10-28T09:18:42.746Z,20.44
2022-10-28T09:19:42.760Z,20.39
2022-10-28T09:20:42.733Z,20.36
2022-10-28T09:21:42.715Z,20.31
2022-10-28T09:22:42.711Z,20.28
2022-10-28T09:23:42.859Z,20.32
2022-10-28T09:24:42.696Z,20.41
2022-10-28T09:25:42.701Z,20.39
2022-10-28T09:26:42.661Z,20.43
2022-10-28T09:27:42.663Z,20.52
2022-10-28T09:28:42.651Z,20.72
2022-10-28T09:29:44.341Z,20.92
2022-10-28T09:30:42.619Z,20.99
2022-10-28T09:31:42.628Z,20.99
2022-10-28T09:32:42.617Z,21.06
2022-10-28T09:33:42.592Z,21.60
2022-10-28T09:34:42.597Z,22.30
2022-10-28T09:35:42.590Z,22.59
2022-10-28T09:36:42.650Z,22.69
2022-10-28T09:37:42.541Z,22.65
2022-10-28T09:38:42.545Z,22.53
2022-10-28T09:39:42.524Z,22.57
2022-10-28T09:40:42.512Z,22.39
2022-10-28T09:41:42.508Z,22.48
2022-10-28T09:42:42.519Z,22.36
2022-10-28T09:43:42.475Z,22.33
2022-10-28T09:44:42.481Z,22.25
2022-10-28T09:45:42.460Z,22.14
2022-10-28T09:46:42.446Z,21.96
2022-10-28T09:47:42.436Z,21.91
2022-10-28T09:48:42.439Z,21.91
2022-10-28T09:49:42.407Z,21.92
2022-10-28T09:50:42.399Z,21.91
2022-10-28T09:51:42.389Z,21.89
2022-10-28T09:52:42.412Z,21.92
2022-10-28T09:53:42.422Z,21.80
2022-10-28T09:54:42.357Z,21.80
2022-10-28T09:55:42.354Z,21.82
2022-10-28T09:56:42.341Z,21.82
2022-10-28T09:57:42.350Z,21.89
2022-10-28T09:58:42.323Z,21.96
2022-10-28T09:59:42.326Z,21.92
2022-10-28T10:00:42.311Z,21.98
2022-10-28T10:01:42.400Z,21.98
2022-10-28T10:02:42.489Z,22.15
2022-10-28T10:03:42.275Z,22.13
2022-10-28T10:04:42.279Z,22.15
2022-10-28T10:05:42.257Z,22.11
2022-10-28T10:06:42.228Z,22.17
2022-10-28T10:07:42.224Z,22.07
2022-10-28T10:08:42.210Z,21.95
2022-10-28T10:09:42.220Z,21.83
2022-10-28T10:10:42.195Z,21.72
2022-10-28T10:11:42.197Z,21.62
2022-10-28T10:12:42.173Z,21.61
2022-10-28T10:13:42.171Z,21.61
2022-10-28T10:14:42.147Z,21.60
2022-10-28T10:15:42.160Z,21.55
2022-10-28T10:16:42.165Z,21.51
2022-10-28T10:17:42.153Z,21.54
2022-10-28T10:18:42.121Z,21.62
2022-10-28T10:19:42.092Z,21.62
2022-10-28T10:20:42.087Z,21.61
2022-10-28T10:21:42.069Z,21.61
2022-10-28T10:22:42.079Z,21.69
2022-10-28T10:23:42.069Z,21.70
2022-10-28T10:24:42.042Z,21.75
2022-10-28T10:25:42.027Z,21.64
2022-10-28T10:26:42.025Z,21.73
2022-10-28T10:27:42.019Z,21.73
2022-10-28T10:28:42.009Z,21.73
2022-10-28T10:29:41.980Z,21.79
2022-10-28T10:30:41.970Z,21.69
2022-10-28T10:31:41.959Z,21.64
2022-10-28T10:32:41.983Z,21.69
2022-10-28T10:33:41.947Z,21.61
2022-10-28T10:34:41.925Z,21.60
2022-10-28T10:35:41.930Z,21.52
2022-10-28T10:36:41.902Z,21.60
2022-10-28T10:37:41.905Z,21.51
2022-10-28T10:38:41.900Z,21.50
2022-10-28T10:39:41.870Z,21.50
2022-10-28T10:40:41.903Z,21.52
2022-10-28T10:41:41.845Z,21.51
2022-10-28T10:42:51.682Z,21.46
2022-10-28T10:43:42.848Z,21.48
2022-10-28T10:44:41.819Z,21.51
2022-10-28T10:45:41.854Z,21.54
2022-10-28T10:46:41.797Z,21.58
2022-10-28T10:47:41.788Z,21.52
2022-10-28T10:48:41.782Z,21.52
2022-10-28T10:49:41.806Z,21.51
2022-10-28T10:50:41.763Z,21.51
2022-10-28T10:51:41.749Z,21.52
2022-10-28T10:52:41.734Z,21.58
2022-10-28T10:53:41.728Z,21.60
2022-10-28T10:54:41.712Z,21.62
2022-10-28T10:55:41.722Z,21.62
2022-10-28T10:56:41.730Z,21.60
2022-10-28T10:57:41.686Z,21.60
2022-10-28T10:58:41.670Z,21.60
2022-10-28T10:59:41.649Z,21.58
2022-10-28T11:00:41.674Z,21.69
2022-10-28T11:01:41.751Z,21.69
2022-10-28T11:02:41.788Z,21.70
2022-10-28T11:03:41.605Z,21.73
2022-10-28T11:04:41.609Z,21.72
2022-10-28T11:05:41.605Z,21.64
2022-10-28T11:06:41.601Z,21.73
2022-10-28T11:07:41.576Z,21.76
2022-10-28T11:08:41.556Z,21.73
2022-10-28T11:09:41.545Z,21.72
2022-10-28T11:10:41.531Z,21.83
2022-10-28T11:11:41.544Z,21.80
2022-10-28T11:12:41.510Z,21.89
2022-10-28T11:13:45.096Z,21.92
2022-10-28T11:14:41.482Z,21.96
2022-10-28T11:15:41.485Z,21.98
2022-10-28T11:16:41.472Z,22.07
2022-10-28T11:17:41.472Z,22.23
2022-10-28T11:18:41.442Z,22.15
2022-10-28T11:19:41.442Z,22.14
2022-10-28T11:20:41.430Z,22.20
2022-10-28T11:21:41.438Z,22.15
2022-10-28T11:22:41.461Z,22.18
2022-10-28T11:23:41.397Z,22.25
2022-10-28T11:24:41.393Z,22.36
2022-10-28T11:25:41.380Z,22.36
2022-10-28T11:26:41.369Z,22.41
2022-10-28T11:27:41.351Z,22.47
2022-10-28T11:28:41.352Z,22.47
2022-10-28T11:29:41.346Z,22.41
2022-10-28T11:30:41.325Z,22.53
2022-10-28T11:31:41.311Z,22.54
2022-10-28T11:32:50.136Z,22.45
2022-10-28T11:33:42.301Z,22.47
2022-10-28T11:34:41.273Z,22.57
2022-10-28T11:35:41.281Z,22.57
2022-10-28T11:36:41.255Z,22.57
2022-10-28T11:37:41.236Z,22.65
2022-10-28T11:38:45.535Z,22.59
2022-10-28T11:39:41.216Z,22.65
2022-10-28T11:40:41.203Z,22.63
2022-10-28T11:41:41.417Z,22.72
2022-10-28T11:42:41.207Z,22.68
2022-10-28T11:43:41.196Z,22.83
2022-10-28T11:44:41.167Z,22.80
2022-10-28T11:45:41.161Z,22.78
2022-10-28T11:46:41.150Z,22.81
2022-10-28T11:47:41.152Z,22.84
2022-10-28T11:48:41.145Z,22.85
2022-10-28T11:49:41.116Z,22.88
2022-10-28T11:50:41.140Z,22.87
2022-10-28T11:51:41.090Z,22.91
2022-10-28T11:52:45.074Z,22.99
2022-10-28T11:53:41.067Z,23.00
2022-10-28T11:54:41.064Z,22.96
2022-10-28T11:55:41.071Z,23.12
2022-10-28T11:56:41.028Z,23.08
2022-10-28T11:57:41.183Z,22.94
2022-10-28T11:58:41.022Z,22.99
2022-10-28T11:59:41.006Z,22.99
2022-10-28T12:00:40.995Z,22.91
2022-10-28T12:01:41.171Z,22.94
2022-10-28T12:02:41.038Z,22.84
2022-10-28T12:03:40.956Z,22.83
2022-10-28T12:04:40.954Z,22.84
2022-10-28T12:05:40.960Z,22.73
2022-10-28T12:06:40.930Z,22.80
2022-10-28T12:07:40.924Z,22.80
2022-10-28T12:08:40.908Z,22.76
2022-10-28T12:09:40.889Z,22.81
2022-10-28T12:10:40.874Z,22.87
2022-10-28T12:11:40.902Z,22.87
2022-10-28T12:12:41.423Z,22.93
2022-10-28T12:13:40.842Z,22.98
2022-10-28T12:14:40.854Z,22.93
2022-10-28T12:15:40.845Z,22.96
2022-10-28T12:16:40.824Z,22.96
2022-10-28T12:17:40.797Z,23.10
2022-10-28T12:18:40.788Z,23.25
2022-10-28T12:19:40.778Z,23.32
2022-10-28T12:20:40.761Z,23.37
2022-10-28T12:21:40.779Z,23.47
2022-10-28T12:22:40.762Z,23.51
2022-10-28T12:23:40.760Z,23.63
2022-10-28T12:24:40.783Z,23.63
2022-10-28T12:25:40.730Z,23.51
2022-10-28T12:26:40.735Z,23.47
2022-10-28T12:27:40.733Z,23.44
2022-10-28T12:28:40.747Z,23.27
2022-10-28T12:29:40.672Z,23.25
2022-10-28T12:30:40.673Z,23.13
2022-10-28T12:31:40.652Z,23.10
2022-10-28T12:32:40.666Z,23.08
2022-10-28T12:33:40.675Z,22.98
2022-10-28T12:34:40.636Z,22.93
2022-10-28T12:35:40.599Z,22.98
2022-10-28T12:36:40.588Z,22.98
2022-10-28T12:37:43.386Z,23.10
2022-10-28T12:38:40.566Z,23.09
2022-10-28T12:39:40.586Z,23.13
2022-10-28T12:40:40.627Z,23.23
2022-10-28T12:42:40.531Z,23.20
2022-10-28T12:43:40.519Z,23.23
2022-10-28T12:44:40.539Z,23.23
2022-10-28T12:45:40.516Z,23.31
2022-10-28T12:46:40.511Z,23.28
2022-10-28T12:47:43.077Z,23.27
2022-10-28T12:48:40.510Z,23.40
2022-10-28T12:49:40.490Z,23.40
2022-10-28T12:50:40.460Z,23.41
2022-10-28T12:51:40.442Z,23.41
2022-10-28T12:52:40.421Z,23.44
2022-10-28T12:53:40.418Z,23.40
2022-10-28T12:54:40.400Z,23.47
2022-10-28T12:55:40.448Z,23.44
2022-10-28T12:56:40.396Z,23.46